Time;durP1;ratioP1;P1;durP2;ratioP2;P2;SDS_P1;SDS_P2;PMS_P1;PMS_P2;Temp;Humidity;BMP_temperature;BMP_pressure;BME280_temperature;BME280_humidity;BME280_pressure;Samples;Min_cycle;Max_cycle;Signal;HPM_P1;HPM_P2
2022/07/17 00:00:06;;;;;;;1.97;1.00;;;;;17.00;99155.00;;;;5096475;28;20198;-70
2022/07/17 00:02:33;;;;;;;1.03;1.03;;;;;17.00;99155.00;;;;5114395;28;20186;-70
2022/07/17 00:05:00;;;;;;;4.90;1.23;;;;;16.90;99152.00;;;;5114473;28;20251;-70
2022/07/17 00:07:29;;;;;;;0.70;0.70;;;;;16.70;99158.00;;;;5096761;28;20198;-70
2022/07/17 00:09:57;;;;;;;1.17;1.17;;;;;16.80;99161.00;;;;5114313;28;20274;-70
2022/07/17 00:12:23;;;;;;;0.60;0.60;;;;;16.70;99154.00;;;;5114354;28;20263;-70
2022/07/17 00:14:51;;;;;;;1.23;1.13;;;;;16.70;99151.00;;;;5114201;28;20190;-70
2022/07/17 00:17:21;;;;;;;0.70;0.70;;;;;16.70;99154.00;;;;5096196;28;20545;-70
2022/07/17 00:19:48;;;;;;;0.63;0.63;;;;;16.50;99160.00;;;;5114179;28;20222;-69
2022/07/17 00:22:15;;;;;;;0.60;0.60;;;;;16.60;99148.00;;;;5114099;28;20209;-70
2022/07/17 00:24:41;;;;;;;1.07;1.07;;;;;16.60;99147.00;;;;5114060;28;20186;-70
2022/07/17 00:27:08;;;;;;;0.77;0.77;;;;;16.60;99152.00;;;;5114066;28;20217;-70
2022/07/17 00:29:35;;;;;;;1.07;1.07;;;;;16.50;99155.00;;;;5113855;28;20229;-70
2022/07/17 00:32:03;;;;;;;0.67;0.67;;;;;16.40;99147.00;;;;5114005;28;20231;-70
2022/07/17 00:34:32;;;;;;;0.70;0.70;;;;;16.30;99149.00;;;;5113886;28;20213;-69
2022/07/17 00:36:59;;;;;;;0.70;0.70;;;;;16.20;99153.00;;;;5113968;28;20645;-70
2022/07/17 00:39:26;;;;;;;0.83;0.83;;;;;16.30;99151.00;;;;5113919;28;20818;-72
2022/07/17 00:41:55;;;;;;;1.43;1.33;;;;;16.30;99159.00;;;;5113890;28;20205;-70
2022/07/17 00:44:25;;;;;;;11.10;0.83;;;;;16.30;99152.00;;;;5113773;28;20700;-70
2022/07/17 00:46:55;;;;;;;0.67;0.67;;;;;16.40;99147.00;;;;5113866;28;20194;-70
2022/07/17 00:49:22;;;;;;;0.90;0.90;;;;;16.40;99147.00;;;;5113627;28;20707;-70
2022/07/17 00:51:49;;;;;;;0.60;0.60;;;;;16.20;99155.00;;;;5113703;28;20635;-70
2022/07/17 00:54:17;;;;;;;1.23;1.13;;;;;16.20;99153.00;;;;5113546;28;20219;-70
2022/07/17 00:56:48;;;;;;;0.63;0.63;;;;;16.20;99157.00;;;;5113629;28;20198;-70
2022/07/17 00:59:18;;;;;;;0.70;0.70;;;;;16.10;99152.00;;;;5113619;28;20240;-69
2022/07/17 01:01:45;;;;;;;0.83;0.83;;;;;16.20;99159.00;;;;5113646;28;20206;-70
2022/07/17 01:04:14;;;;;;;0.53;0.53;;;;;16.10;99157.00;;;;5113668;28;20381;-70
2022/07/17 01:06:42;;;;;;;0.70;0.70;;;;;16.00;99157.00;;;;5113684;28;20221;-70
2022/07/17 01:09:11;;;;;;;0.70;0.70;;;;;15.80;99159.00;;;;5117145;28;20240;-69
2022/07/17 01:11:38;;;;;;;1.07;1.07;;;;;15.80;99152.00;;;;5117427;28;20204;-70
2022/07/17 01:14:05;;;;;;;0.90;0.90;;;;;15.90;99156.00;;;;5117617;28;20225;-70
2022/07/17 01:16:33;;;;;;;0.50;0.50;;;;;15.80;99152.00;;;;5117171;28;20235;-70
2022/07/17 01:19:00;;;;;;;0.53;0.53;;;;;15.80;99156.00;;;;5116960;28;20217;-69
2022/07/17 01:21:38;;;;;;;0.80;0.80;;;;;15.80;99159.00;;;;5099663;28;20194;-70
2022/07/17 01:24:06;;;;;;;0.40;0.40;;;;;15.70;99153.00;;;;5117012;28;20275;-70
2022/07/17 01:26:33;;;;;;;1.40;1.03;;;;;15.80;99160.00;;;;5098901;28;20198;-69
2022/07/17 01:29:00;;;;;;;0.50;0.50;;;;;15.90;99154.00;;;;5116651;28;20669;-70
2022/07/17 01:31:27;;;;;;;0.60;0.60;;;;;15.90;99161.00;;;;5098962;28;20197;-70
2022/07/17 01:33:54;;;;;;;3.13;1.27;;;;;15.60;99155.00;;;;5116625;28;20680;-70
2022/07/17 01:36:23;;;;;;;0.63;0.63;;;;;15.50;99151.00;;;;5116733;28;20284;-70
2022/07/17 01:38:54;;;;;;;0.80;0.80;;;;;15.60;99154.00;;;;5116608;28;20226;-70
2022/07/17 01:41:21;;;;;;;0.70;0.70;;;;;15.60;99156.00;;;;5116608;28;20237;-70
2022/07/17 01:43:48;;;;;;;1.10;1.10;;;;;15.50;99157.00;;;;5116551;28;20304;-71
2022/07/17 01:46:15;;;;;;;1.80;1.37;;;;;15.50;99157.00;;;;5116631;28;20186;-70
2022/07/17 01:48:44;;;;;;;0.90;0.90;;;;;15.50;99160.00;;;;5116274;28;20218;-71
2022/07/17 01:51:11;;;;;;;0.87;0.87;;;;;15.50;99168.00;;;;5116494;28;20198;-70
2022/07/17 01:53:38;;;;;;;0.70;0.70;;;;;15.60;99158.00;;;;5116332;28;20213;-69
2022/07/17 01:56:06;;;;;;;0.53;0.53;;;;;15.40;99154.00;;;;5116308;28;20646;-70
2022/07/17 01:58:34;;;;;;;0.90;0.90;;;;;15.20;99153.00;;;;5116287;28;20302;-70
2022/07/17 02:01:01;;;;;;;0.90;0.90;;;;;15.30;99145.00;;;;5116637;28;20191;-70
2022/07/17 02:03:27;;;;;;;0.80;0.80;;;;;15.30;99144.00;;;;5116250;28;20248;-70
2022/07/17 02:05:54;;;;;;;0.90;0.90;;;;;15.10;99139.00;;;;5116173;28;20250;-70
2022/07/17 02:08:24;;;;;;;3.80;1.23;;;;;15.10;99138.00;;;;5116165;28;20245;-70
2022/07/17 02:10:50;;;;;;;1.50;1.43;;;;;15.10;99137.00;;;;5116096;28;20198;-70
2022/07/17 02:13:18;;;;;;;0.70;0.70;;;;;15.20;99141.00;;;;5116377;28;20194;-70
2022/07/17 02:15:45;;;;;;;0.67;0.67;;;;;15.10;99146.00;;;;5116213;28;20272;-70
2022/07/17 02:18:12;;;;;;;0.87;0.87;;;;;15.00;99146.00;;;;5098043;28;20202;-71
2022/07/17 02:20:39;;;;;;;0.80;0.80;;;;;15.10;99146.00;;;;5116019;28;20190;-70
2022/07/17 02:23:05;;;;;;;0.90;0.90;;;;;15.00;99147.00;;;;5119146;28;20284;-70
2022/07/17 02:25:32;;;;;;;0.80;0.80;;;;;15.00;99147.00;;;;5116183;28;20202;-70
2022/07/17 02:27:59;;;;;;;0.63;0.63;;;;;15.00;99147.00;;;;5116175;28;20212;-70
2022/07/17 02:30:26;;;;;;;1.07;1.07;;;;;14.90;99139.00;;;;5116014;28;20312;-70
2022/07/17 02:32:56;;;;;;;2.97;1.60;;;;;14.90;99136.00;;;;5115825;28;20263;-69
2022/07/17 02:35:25;;;;;;;0.93;0.93;;;;;14.90;99134.00;;;;5115719;28;20762;-69
2022/07/17 02:37:52;;;;;;;0.60;0.60;;;;;15.00;99126.00;;;;5115554;28;20285;-70
2022/07/17 02:40:19;;;;;;;0.70;0.70;;;;;15.00;99133.00;;;;5115546;28;20300;-70
2022/07/17 02:42:46;;;;;;;0.80;0.80;;;;;14.90;99125.00;;;;5115559;28;20296;-70
2022/07/17 02:45:12;;;;;;;0.90;0.90;;;;;15.00;99132.00;;;;5115465;28;20664;-70
2022/07/17 02:47:41;;;;;;;1.20;1.20;;;;;14.90;99122.00;;;;5115639;28;20201;-71
2022/07/17 02:50:10;;;;;;;0.60;0.60;;;;;14.80;99130.00;;;;5115333;28;20285;-70
2022/07/17 02:52:37;;;;;;;0.67;0.67;;;;;14.70;99125.00;;;;5115507;28;20213;-70
2022/07/17 02:55:04;;;;;;;0.80;0.80;;;;;14.60;99123.00;;;;5115362;28;20226;-70
2022/07/17 02:57:32;;;;;;;0.70;0.70;;;;;14.50;99126.00;;;;5115562;28;20213;-70
2022/07/17 02:59:58;;;;;;;0.60;0.60;;;;;14.30;99121.00;;;;5097439;28;20661;-70
2022/07/17 03:02:25;;;;;;;0.60;0.60;;;;;14.20;99116.00;;;;5115365;28;20190;-69
2022/07/17 03:04:53;;;;;;;0.60;0.60;;;;;14.30;99122.00;;;;5115208;28;20228;-70
2022/07/17 03:07:20;;;;;;;0.87;0.87;;;;;14.30;99123.00;;;;5115242;28;20186;-71
2022/07/17 03:09:46;;;;;;;1.87;1.23;;;;;14.40;99131.00;;;;5115080;28;20306;-69
2022/07/17 03:12:15;;;;;;;1.30;1.23;;;;;14.40;99119.00;;;;5115240;28;20201;-72
2022/07/17 03:14:42;;;;;;;1.37;1.27;;;;;14.30;99121.00;;;;5115219;28;20222;-69
2022/07/17 03:17:09;;;;;;;2.00;1.77;;;;;14.20;99115.00;;;;5115145;28;20213;-70
2022/07/17 03:19:36;;;;;;;1.00;1.00;;;;;14.20;99111.00;;;;5114983;28;20228;-70
2022/07/17 03:22:04;;;;;;;1.10;1.10;;;;;14.10;99118.00;;;;5115069;28;20222;-70
2022/07/17 03:24:31;;;;;;;0.70;0.70;;;;;14.20;99116.00;;;;5114969;28;20621;-69
2022/07/17 03:26:58;;;;;;;2.10;0.90;;;;;14.20;99120.00;;;;5115032;28;20277;-69
2022/07/17 03:29:25;;;;;;;1.07;1.07;;;;;14.20;99128.00;;;;5114760;28;20214;-69
2022/07/17 03:31:52;;;;;;;0.93;0.93;;;;;14.10;99123.00;;;;5114287;28;20712;-70
2022/07/17 03:34:18;;;;;;;0.60;0.60;;;;;14.10;99129.00;;;;5114823;28;20201;-70
2022/07/17 03:36:46;;;;;;;1.03;1.03;;;;;14.10;99124.00;;;;5114847;28;20204;-69
2022/07/17 03:39:16;;;;;;;0.80;0.80;;;;;14.10;99132.00;;;;5114942;28;20245;-70
2022/07/17 03:41:43;;;;;;;0.80;0.80;;;;;14.10;99122.00;;;;5114722;28;20643;-70
2022/07/17 03:44:10;;;;;;;1.07;1.00;;;;;14.10;99126.00;;;;5114688;28;20706;-70
2022/07/17 03:46:37;;;;;;;0.70;0.70;;;;;14.10;99125.00;;;;5114874;28;20198;-70
2022/07/17 03:49:06;;;;;;;2.57;1.87;;;;;14.00;99125.00;;;;5114674;28;20209;-69
2022/07/17 03:51:33;;;;;;;1.30;1.30;;;;;13.90;99127.00;;;;5114676;28;20222;-69
2022/07/17 03:53:59;;;;;;;0.73;0.73;;;;;13.90;99133.00;;;;5114592;28;20194;-69
2022/07/17 03:56:27;;;;;;;0.90;0.90;;;;;14.00;99134.00;;;;5114467;28;20193;-69
2022/07/17 03:58:54;;;;;;;2.60;1.00;;;;;13.90;99134.00;;;;5114482;28;20186;-69
2022/07/17 04:01:20;;;;;;;0.83;0.83;;;;;14.10;99133.00;;;;5114380;28;20214;-69
2022/07/17 04:03:47;;;;;;;0.60;0.60;;;;;14.10;99129.00;;;;5114683;28;20202;-71
2022/07/17 04:06:14;;;;;;;0.70;0.70;;;;;14.10;99137.00;;;;5096562;28;20583;-69
2022/07/17 04:08:41;;;;;;;1.20;1.17;;;;;14.10;99137.00;;;;5114224;28;20218;-70
2022/07/17 04:11:11;;;;;;;0.70;0.70;;;;;14.10;99130.00;;;;5114388;28;20274;-70
2022/07/17 04:13:38;;;;;;;0.93;0.93;;;;;14.30;99139.00;;;;5114230;28;20210;-70
2022/07/17 04:16:06;;;;;;;0.70;0.70;;;;;14.30;99132.00;;;;5114120;28;20278;-69
2022/07/17 04:18:34;;;;;;;0.80;0.80;;;;;14.30;99134.00;;;;5096242;28;20198;-70
2022/07/17 04:21:03;;;;;;;0.63;0.63;;;;;14.10;99140.00;;;;5114050;28;20226;-70
2022/07/17 04:23:31;;;;;;;0.80;0.80;;;;;14.20;99139.00;;;;5114149;28;20202;-70
2022/07/17 04:25:57;;;;;;;1.00;1.00;;;;;14.10;99141.00;;;;5113954;28;20587;-69
2022/07/17 04:28:24;;;;;;;0.80;0.80;;;;;14.00;99148.00;;;;5113976;28;20218;-70
2022/07/17 04:30:52;;;;;;;1.00;1.00;;;;;14.00;99139.00;;;;5113966;28;20218;-69
2022/07/17 04:33:19;;;;;;;1.40;1.40;;;;;14.10;99142.00;;;;5114317;28;20528;-71
2022/07/17 04:35:46;;;;;;;0.70;0.70;;;;;14.20;99152.00;;;;5114041;28;20226;-70
2022/07/17 04:38:13;;;;;;;1.00;1.00;;;;;14.20;99147.00;;;;5114019;28;20301;-70
2022/07/17 04:40:42;;;;;;;1.07;1.07;;;;;14.30;99144.00;;;;5113929;28;20225;-69
2022/07/17 04:43:11;;;;;;;0.90;0.90;;;;;14.30;99148.00;;;;5115855;28;20215;-70
2022/07/17 04:45:38;;;;;;;0.80;0.80;;;;;14.40;99143.00;;;;5117461;28;20226;-69
2022/07/17 04:48:06;;;;;;;0.80;0.80;;;;;14.30;99140.00;;;;5117595;28;20298;-71
2022/07/17 04:50:33;;;;;;;1.07;1.07;;;;;14.20;99139.00;;;;5099346;28;20546;-69
2022/07/17 04:53:00;;;;;;;1.43;1.33;;;;;14.40;99144.00;;;;5099457;28;20190;-70
2022/07/17 04:55:29;;;;;;;0.70;0.70;;;;;14.40;99140.00;;;;5117271;28;20222;-70
2022/07/17 04:57:56;;;;;;;0.77;0.77;;;;;14.50;99144.00;;;;5117395;28;20206;-69
2022/07/17 05:00:25;;;;;;;0.57;0.57;;;;;14.60;99151.00;;;;5117267;28;20221;-70
2022/07/17 05:02:52;;;;;;;0.80;0.80;;;;;14.70;99151.00;;;;5117301;28;20213;-70
2022/07/17 05:05:20;;;;;;;2.40;1.57;;;;;14.60;99147.00;;;;5117150;28;20300;-69
2022/07/17 05:07:48;;;;;;;0.60;0.60;;;;;14.70;99149.00;;;;5117219;28;20206;-71
2022/07/17 05:10:17;;;;;;;1.03;1.03;;;;;14.90;99147.00;;;;5116995;28;20228;-69
2022/07/17 05:12:43;;;;;;;0.60;0.60;;;;;14.80;99148.00;;;;5117592;28;20217;-70
2022/07/17 05:15:10;;;;;;;0.60;0.60;;;;;14.80;99148.00;;;;5099091;28;20190;-69
2022/07/17 05:17:37;;;;;;;1.03;1.03;;;;;14.90;99150.00;;;;5117237;28;20202;-69
2022/07/17 05:20:08;;;;;;;1.03;1.03;;;;;15.00;99150.00;;;;5116903;28;20259;-69
2022/07/17 05:22:35;;;;;;;0.93;0.93;;;;;15.00;99154.00;;;;5117069;28;20209;-69
2022/07/17 05:25:02;;;;;;;0.80;0.80;;;;;15.10;99148.00;;;;5116882;28;20193;-69
2022/07/17 05:27:31;;;;;;;0.70;0.70;;;;;15.10;99147.00;;;;5116898;28;20212;-71
2022/07/17 05:29:58;;;;;;;1.03;1.03;;;;;15.30;99148.00;;;;5116932;28;20250;-69
2022/07/17 05:32:25;;;;;;;0.87;0.87;;;;;15.40;99160.00;;;;5099726;28;20194;-69
2022/07/17 05:34:52;;;;;;;1.27;1.17;;;;;15.50;99158.00;;;;5117320;28;20216;-69
2022/07/17 05:37:19;;;;;;;0.77;0.77;;;;;15.50;99153.00;;;;5116870;28;20198;-69
2022/07/17 05:39:46;;;;;;;0.80;0.80;;;;;15.50;99149.00;;;;5116935;28;20653;-69
2022/07/17 05:42:13;;;;;;;1.40;1.30;;;;;15.60;99147.00;;;;5116841;28;20182;-71
2022/07/17 05:44:40;;;;;;;0.80;0.80;;;;;15.70;99153.00;;;;5116632;28;20216;-69
2022/07/17 05:47:06;;;;;;;1.07;1.07;;;;;15.80;99157.00;;;;5116331;28;20214;-69
2022/07/17 05:49:33;;;;;;;1.83;1.03;;;;;15.90;99153.00;;;;5116431;28;20221;-69
2022/07/17 05:52:00;;;;;;;1.43;1.33;;;;;15.90;99156.00;;;;5116441;28;20680;-69
2022/07/17 05:54:27;;;;;;;0.80;0.80;;;;;16.00;99157.00;;;;5116017;28;20183;-70
2022/07/17 05:56:54;;;;;;;1.10;1.10;;;;;16.10;99158.00;;;;5116257;28;20537;-69
2022/07/17 05:59:21;;;;;;;0.97;0.97;;;;;16.30;99162.00;;;;5116380;28;20254;-69
2022/07/17 06:01:48;;;;;;;1.13;1.13;;;;;16.30;99163.00;;;;5116557;28;20592;-69
2022/07/17 06:04:17;;;;;;;0.77;0.77;;;;;16.40;99168.00;;;;5116278;28;20201;-69
2022/07/17 06:06:46;;;;;;;0.50;0.50;;;;;16.40;99166.00;;;;5116078;28;20214;-69
2022/07/17 06:09:13;;;;;;;1.47;1.27;;;;;16.50;99177.00;;;;5116133;28;20293;-70
2022/07/17 06:11:40;;;;;;;0.60;0.60;;;;;16.60;99164.00;;;;5116088;28;20228;-69
2022/07/17 06:14:07;;;;;;;0.67;0.67;;;;;16.60;99173.00;;;;5116109;28;20281;-69
2022/07/17 06:16:36;;;;;;;0.90;0.90;;;;;16.70;99169.00;;;;5115988;28;20233;-69
2022/07/17 06:19:03;;;;;;;1.17;1.17;;;;;16.80;99172.00;;;;5116417;28;20709;-70
2022/07/17 06:21:32;;;;;;;0.60;0.60;;;;;16.90;99178.00;;;;5115926;28;20225;-69
2022/07/17 06:23:59;;;;;;;1.37;1.33;;;;;16.90;99177.00;;;;5115910;28;20214;-70
2022/07/17 06:26:26;;;;;;;1.30;1.20;;;;;17.00;99180.00;;;;5116051;28;20240;-69
2022/07/17 06:28:55;;;;;;;1.37;1.33;;;;;17.00;99183.00;;;;5115793;28;20217;-69
2022/07/17 06:31:23;;;;;;;1.90;0.90;;;;;17.10;99176.00;;;;5115749;28;20275;-69
2022/07/17 06:33:49;;;;;;;1.03;0.97;;;;;17.20;99184.00;;;;5115802;28;20201;-69
2022/07/17 06:36:16;;;;;;;0.70;0.70;;;;;17.20;99180.00;;;;5115726;28;20214;-69
2022/07/17 06:38:43;;;;;;;0.83;0.83;;;;;17.30;99176.00;;;;5115682;28;20213;-69
2022/07/17 06:41:10;;;;;;;0.70;0.70;;;;;17.40;99180.00;;;;5115661;28;20220;-69
2022/07/17 06:43:37;;;;;;;0.93;0.80;;;;;17.50;99178.00;;;;5116130;28;20209;-69
2022/07/17 06:46:04;;;;;;;0.60;0.60;;;;;17.60;99185.00;;;;5115615;28;20305;-69
2022/07/17 06:48:31;;;;;;;1.87;1.73;;;;;17.60;99185.00;;;;5115792;28;20649;-69
2022/07/17 06:51:00;;;;;;;3.10;0.90;;;;;17.80;99191.00;;;;5115433;28;20209;-71
2022/07/17 06:53:27;;;;;;;0.60;0.60;;;;;17.80;99183.00;;;;5115698;28;20190;-69
2022/07/17 06:55:56;;;;;;;0.73;0.73;;;;;17.90;99185.00;;;;5115228;28;20214;-69
2022/07/17 06:58:25;;;;;;;0.70;0.70;;;;;17.90;99191.00;;;;5115470;28;20281;-69
2022/07/17 07:00:54;;;;;;;0.60;0.60;;;;;18.00;99187.00;;;;5115216;28;20198;-69
2022/07/17 07:03:21;;;;;;;0.60;0.60;;;;;18.10;99188.00;;;;5115237;28;20213;-69
2022/07/17 07:05:51;;;;;;;0.80;0.80;;;;;18.20;99191.00;;;;5114472;28;20297;-69
2022/07/17 07:08:18;;;;;;;0.77;0.77;;;;;18.20;99193.00;;;;5115186;28;20190;-69
2022/07/17 07:10:45;;;;;;;0.73;0.73;;;;;18.30;99193.00;;;;5115141;28;20194;-69
2022/07/17 07:13:13;;;;;;;0.50;0.50;;;;;18.40;99198.00;;;;5114986;28;20194;-69
2022/07/17 07:15:40;;;;;;;1.33;1.23;;;;;18.50;99197.00;;;;5115053;28;20217;-69
2022/07/17 07:18:09;;;;;;;0.40;0.40;;;;;18.60;99195.00;;;;5115116;28;20197;-69
2022/07/17 07:20:39;;;;;;;2.77;1.47;;;;;18.60;99199.00;;;;5114986;28;20526;-69
2022/07/17 07:23:06;;;;;;;0.77;0.77;;;;;18.80;99209.00;;;;5114959;28;20208;-69
2022/07/17 07:25:33;;;;;;;0.50;0.50;;;;;18.90;99207.00;;;;5114951;28;20272;-69
2022/07/17 07:28:00;;;;;;;0.70;0.70;;;;;19.00;99210.00;;;;5114866;28;20273;-69
2022/07/17 07:30:27;;;;;;;0.57;0.57;;;;;19.00;99204.00;;;;5115008;28;20310;-69
2022/07/17 07:32:56;;;;;;;0.87;0.87;;;;;19.10;99203.00;;;;5114807;28;20206;-69
2022/07/17 07:35:23;;;;;;;0.70;0.70;;;;;19.20;99195.00;;;;5114901;28;20222;-69
2022/07/17 07:37:50;;;;;;;2.60;1.23;;;;;19.20;99195.00;;;;5114790;28;20190;-69
2022/07/17 07:40:18;;;;;;;0.60;0.60;;;;;19.20;99197.00;;;;5114885;28;20206;-69
2022/07/17 07:42:45;;;;;;;1.20;1.20;;;;;19.30;99200.00;;;;5114688;28;20411;-69
2022/07/17 07:45:12;;;;;;;0.40;0.40;;;;;19.40;99197.00;;;;5114652;28;20194;-70
2022/07/17 07:47:42;;;;;;;0.60;0.60;;;;;19.40;99193.00;;;;5114571;28;20217;-71
2022/07/17 07:50:11;;;;;;;0.50;0.50;;;;;19.70;99196.00;;;;5114584;28;20260;-69
2022/07/17 07:52:38;;;;;;;0.50;0.50;;;;;19.80;99203.00;;;;5114496;28;20213;-70
2022/07/17 07:55:06;;;;;;;0.60;0.60;;;;;19.80;99197.00;;;;5114530;28;20262;-68
2022/07/17 07:57:33;;;;;;;0.40;0.40;;;;;19.90;99201.00;;;;5114343;28;20217;-68
2022/07/17 08:00:00;;;;;;;0.40;0.40;;;;;19.90;99196.00;;;;5114760;28;20277;-68
2022/07/17 08:02:29;;;;;;;2.13;1.17;;;;;20.00;99204.00;;;;5114289;28;20256;-68
2022/07/17 08:04:56;;;;;;;1.03;0.70;;;;;20.10;99195.00;;;;5114587;28;20286;-69
2022/07/17 08:07:22;;;;;;;0.80;0.80;;;;;20.20;99191.00;;;;5114320;28;20228;-70
2022/07/17 08:09:49;;;;;;;0.40;0.40;;;;;20.30;99202.00;;;;5114296;28;20296;-69
2022/07/17 08:12:16;;;;;;;0.40;0.40;;;;;20.30;99199.00;;;;5114312;28;20687;-69
2022/07/17 08:14:46;;;;;;;0.70;0.70;;;;;20.40;99199.00;;;;5114432;28;20276;-69
2022/07/17 08:17:13;;;;;;;0.50;0.50;;;;;20.50;99203.00;;;;5113959;28;20252;-69
2022/07/17 08:19:40;;;;;;;0.70;0.70;;;;;20.60;99202.00;;;;5115571;28;20232;-69
2022/07/17 08:22:07;;;;;;;0.53;0.53;;;;;20.80;99211.00;;;;5115596;28;20252;-69
2022/07/17 08:24:33;;;;;;;0.73;0.73;;;;;21.00;99210.00;;;;5114454;28;20181;-69
2022/07/17 08:27:00;;;;;;;0.57;0.57;;;;;21.10;99207.00;;;;5114312;28;20306;-69
2022/07/17 08:29:27;;;;;;;0.75;0.75;;;;;21.20;99205.00;;;;5114279;28;20309;-69
2022/07/17 08:31:55;;;;;;;0.40;0.40;;;;;21.20;99203.00;;;;5114280;28;20306;-69
2022/07/17 08:34:22;;;;;;;0.45;0.45;;;;;21.30;99201.00;;;;5114007;28;20206;-69
2022/07/17 08:36:48;;;;;;;0.45;0.45;;;;;21.40;99203.00;;;;5113903;28;20229;-69
2022/07/17 08:39:15;;;;;;;0.68;0.68;;;;;21.50;99197.00;;;;5113941;28;20526;-70
2022/07/17 08:41:42;;;;;;;0.67;0.67;;;;;21.60;99198.00;;;;5113757;28;20294;-69
2022/07/17 08:44:09;;;;;;;1.98;0.80;;;;;21.70;99201.00;;;;5114083;28;20732;-70
2022/07/17 08:46:38;;;;;;;0.52;0.52;;;;;21.80;99195.00;;;;5113696;28;20190;-69
2022/07/17 08:49:07;;;;;;;0.73;0.73;;;;;21.90;99196.00;;;;5113663;28;20218;-70
2022/07/17 08:51:36;;;;;;;0.43;0.43;;;;;21.90;99198.00;;;;5113774;28;20261;-69
2022/07/17 08:54:03;;;;;;;0.85;0.85;;;;;22.00;99206.00;;;;5113752;28;20528;-69
2022/07/17 08:56:30;;;;;;;0.60;0.60;;;;;22.10;99206.00;;;;5113863;28;20197;-69
2022/07/17 08:58:57;;;;;;;0.40;0.40;;;;;22.30;99202.00;;;;5113672;28;20262;-69
2022/07/17 09:01:25;;;;;;;0.50;0.50;;;;;22.20;99211.00;;;;5113672;28;20636;-69
2022/07/17 09:03:57;;;;;;;0.45;0.45;;;;;22.40;99205.00;;;;5113586;28;20186;-69
2022/07/17 09:06:25;;;;;;;0.50;0.50;;;;;22.50;99202.00;;;;5113788;28;20204;-70
2022/07/17 09:09:02;;;;;;;0.55;0.55;;;;;22.70;99213.00;;;;5095505;28;20213;-70
2022/07/17 09:11:42;;;;;;;0.40;0.40;;;;;22.80;99209.00;;;;5113716;28;20186;-70
2022/07/17 09:14:09;;;;;;;0.73;0.73;;;;;22.90;99206.00;;;;5113570;28;20184;-70
2022/07/17 09:16:47;;;;;;;0.82;0.82;;;;;23.00;99213.00;;;;5113427;28;20209;-69
2022/07/17 09:19:25;;;;;;;0.88;0.88;;;;;23.10;99203.00;;;;5113421;28;20194;-70
2022/07/17 09:22:09;;;;;;;0.63;0.63;;;;;23.10;99201.00;;;;5113356;28;20608;-70
2022/07/17 09:24:43;;;;;;;0.50;0.50;;;;;23.30;99207.00;;;;5113347;28;20190;-69
2022/07/17 09:27:17;;;;;;;0.60;0.60;;;;;23.50;99211.00;;;;5113257;28;20263;-69
2022/07/17 09:29:56;;;;;;;0.77;0.77;;;;;23.70;99212.00;;;;5115821;28;20653;-70
2022/07/17 09:32:26;;;;;;;0.57;0.57;;;;;23.80;99205.00;;;;5116679;28;20226;-69
2022/07/17 09:34:55;;;;;;;0.93;0.93;;;;;23.80;99205.00;;;;5116747;28;20206;-70
2022/07/17 09:37:25;;;;;;;0.40;0.40;;;;;24.00;99199.00;;;;5116863;28;20228;-69
2022/07/17 09:39:53;;;;;;;0.40;0.40;;;;;24.10;99197.00;;;;5116573;28;20190;-70
2022/07/17 09:42:25;;;;;;;0.73;0.73;;;;;24.30;99186.00;;;;5116474;28;20228;-70
2022/07/17 09:44:57;;;;;;;0.50;0.50;;;;;24.30;99192.00;;;;5116565;28;20296;-70
2022/07/17 09:47:24;;;;;;;0.77;0.77;;;;;24.20;99202.00;;;;5116363;28;20728;-70
2022/07/17 09:49:53;;;;;;;0.50;0.50;;;;;24.40;99195.00;;;;5116452;28;20237;-70
2022/07/17 09:52:21;;;;;;;0.70;0.70;;;;;24.50;99202.00;;;;5116344;28;20326;-69
2022/07/17 09:54:51;;;;;;;0.75;0.75;;;;;24.70;99197.00;;;;5116400;28;20212;-72
2022/07/17 09:57:20;;;;;;;0.47;0.47;;;;;24.70;99200.00;;;;5116311;28;20218;-69
2022/07/17 09:59:48;;;;;;;0.60;0.60;;;;;24.80;99205.00;;;;5116473;28;20197;-69
2022/07/17 10:02:16;;;;;;;0.50;0.50;;;;;24.90;99198.00;;;;5116230;28;20201;-69
2022/07/17 10:04:46;;;;;;;0.60;0.60;;;;;25.00;99206.00;;;;5116553;28;20528;-69
2022/07/17 10:07:13;;;;;;;0.60;0.60;;;;;25.10;99204.00;;;;5116166;28;20190;-69
2022/07/17 10:09:40;;;;;;;0.57;0.57;;;;;25.30;99200.00;;;;5098179;28;20240;-69
2022/07/17 10:12:09;;;;;;;0.50;0.50;;;;;25.30;99203.00;;;;5116223;28;20186;-69
2022/07/17 10:14:38;;;;;;;0.70;0.70;;;;;25.40;99198.00;;;;5116095;28;20609;-69
2022/07/17 10:17:09;;;;;;;0.50;0.50;;;;;25.10;99191.00;;;;5116024;28;20692;-69
2022/07/17 10:19:45;;;;;;;1.08;0.75;;;;;25.20;99191.00;;;;5098075;28;20194;-69
2022/07/17 10:22:12;;;;;;;0.50;0.50;;;;;25.60;99188.00;;;;5115995;28;20284;-69
2022/07/17 10:24:46;;;;;;;0.50;0.50;;;;;25.70;99188.00;;;;5116091;28;20193;-70
2022/07/17 10:27:20;;;;;;;0.70;0.70;;;;;25.70;99191.00;;;;5116002;28;20620;-70
2022/07/17 10:29:47;;;;;;;0.60;0.60;;;;;25.90;99180.00;;;;5115838;28;20606;-68
2022/07/17 10:32:18;;;;;;;0.50;0.50;;;;;26.00;99182.00;;;;5115820;28;20190;-69
2022/07/17 10:34:46;;;;;;;1.48;0.73;;;;;26.00;99175.00;;;;5115871;28;20278;-69
2022/07/17 10:37:17;;;;;;;0.47;0.47;;;;;26.00;99175.00;;;;5115791;28;20278;-69
2022/07/17 10:39:53;;;;;;;0.90;0.90;;;;;26.00;99176.00;;;;5114682;28;20224;-69
2022/07/17 10:42:46;;;;;;;0.60;0.60;;;;;26.10;99170.00;;;;5115812;28;20201;-69
2022/07/17 10:45:15;;;;;;;0.68;0.68;;;;;26.20;99168.00;;;;5115819;28;20205;-69
2022/07/17 10:47:48;;;;;;;0.60;0.60;;;;;26.10;99162.00;;;;5115583;28;21248;-69
2022/07/17 10:50:19;;;;;;;0.50;0.50;;;;;26.20;99159.00;;;;5115357;28;20213;-71
2022/07/17 10:53:00;;;;;;;0.57;0.57;;;;;26.30;99159.00;;;;5115667;28;20194;-69
2022/07/17 10:55:28;;;;;;;0.40;0.40;;;;;26.50;99163.00;;;;5115826;28;20242;-69
2022/07/17 10:57:56;;;;;;;0.70;0.70;;;;;26.80;99169.00;;;;5115602;28;20269;-68
2022/07/17 11:00:24;;;;;;;0.60;0.60;;;;;27.00;99173.00;;;;5115918;28;20220;-70
2022/07/17 11:02:53;;;;;;;0.40;0.40;;;;;27.20;99179.00;;;;5115371;28;20225;-69
2022/07/17 11:05:21;;;;;;;0.77;0.77;;;;;27.30;99173.00;;;;5115547;28;20209;-70
2022/07/17 11:07:52;;;;;;;0.75;0.75;;;;;27.40;99171.00;;;;5115203;28;20277;-70
2022/07/17 11:10:20;;;;;;;0.50;0.50;;;;;27.50;99171.00;;;;5115207;28;20753;-69
2022/07/17 11:12:46;;;;;;;0.60;0.60;;;;;27.70;99168.00;;;;5115333;28;20224;-70
2022/07/17 11:15:14;;;;;;;0.80;0.80;;;;;27.90;99166.00;;;;5115266;28;20197;-69
2022/07/17 11:17:45;;;;;;;1.00;1.00;;;;;28.00;99152.00;;;;5115156;28;20247;-70
2022/07/17 11:20:12;;;;;;;0.70;0.70;;;;;28.10;99163.00;;;;5115185;28;20202;-70
2022/07/17 11:22:39;;;;;;;0.60;0.60;;;;;28.00;99155.00;;;;5115096;28;20198;-70
2022/07/17 11:25:08;;;;;;;1.48;1.35;;;;;28.20;99154.00;;;;5115325;28;20182;-69
2022/07/17 11:27:36;;;;;;;0.65;0.65;;;;;28.20;99143.00;;;;5097062;28;20190;-69
2022/07/17 11:30:05;;;;;;;0.68;0.68;;;;;28.30;99150.00;;;;5096994;28;20234;-69
2022/07/17 11:32:36;;;;;;;0.68;0.68;;;;;28.30;99147.00;;;;5114879;28;20232;-69
2022/07/17 11:35:14;;;;;;;0.60;0.60;;;;;28.40;99151.00;;;;5114822;28;20243;-69
2022/07/17 11:37:40;;;;;;;0.65;0.65;;;;;28.60;99157.00;;;;5114831;28;20185;-70
2022/07/17 11:40:10;;;;;;;0.70;0.70;;;;;28.90;99164.00;;;;5114697;28;20221;-70
2022/07/17 11:42:37;;;;;;;0.60;0.60;;;;;29.20;99157.00;;;;5114868;28;20289;-70
2022/07/17 11:45:05;;;;;;;0.60;0.60;;;;;29.30;99167.00;;;;5096861;28;20528;-71
2022/07/17 11:47:35;;;;;;;0.50;0.50;;;;;29.60;99166.00;;;;5114944;28;20202;-70
2022/07/17 11:50:11;;;;;;;0.75;0.75;;;;;29.80;99154.00;;;;5114568;28;20305;-70
2022/07/17 11:52:43;;;;;;;0.77;0.77;;;;;30.00;99150.00;;;;5114118;28;20592;-70
2022/07/17 11:55:10;;;;;;;0.70;0.70;;;;;29.90;99150.00;;;;5114540;28;20225;-70
2022/07/17 11:57:45;;;;;;;0.70;0.70;;;;;29.80;99145.00;;;;5114538;28;20276;-70
2022/07/17 12:00:14;;;;;;;0.70;0.70;;;;;30.10;99148.00;;;;5114592;28;20194;-70
2022/07/17 12:02:41;;;;;;;0.70;0.70;;;;;30.20;99150.00;;;;5114512;28;20190;-69
2022/07/17 12:05:09;;;;;;;0.60;0.60;;;;;30.20;99149.00;;;;5114461;28;20198;-70
2022/07/17 12:07:46;;;;;;;0.70;0.70;;;;;30.20;99151.00;;;;5114460;28;20218;-70
2022/07/17 12:10:15;;;;;;;0.70;0.70;;;;;30.20;99146.00;;;;5114253;28;20517;-71
2022/07/17 12:12:53;;;;;;;0.68;0.68;;;;;29.80;99142.00;;;;5114303;28;20201;-72
2022/07/17 12:15:21;;;;;;;0.90;0.90;;;;;29.70;99139.00;;;;5114316;28;20198;-71
2022/07/17 12:17:48;;;;;;;0.98;0.98;;;;;29.90;99135.00;;;;5114298;28;20250;-71
2022/07/17 12:20:17;;;;;;;1.58;0.88;;;;;30.30;99138.00;;;;5114602;28;20625;-70
2022/07/17 12:22:48;;;;;;;0.70;0.70;;;;;30.60;99133.00;;;;5114290;28;20205;-71